• Join FlightAware (Why Join?)
  • Login
  • US Flag 
11:40PM EDT


 

Airport Tracker/Info


-or-


 

Live Flight TrackerFlight Track Log ✈ EJA396 ✈ 14-Jun-2013 ✈ TXKF / BDA - KMMU

Flight Track Log - Related Links

Times and Time Zones

All times are in EDT time to prevent confusion due to time zone crossing. See the EJA396 flight status page for this flight to view local times or setup timezone preferences in your user account.

Time Position Orientation Groundspeed Altitude Reporting Facility
EDT Latitude Longitude Course Direction KTS MPH feet Rate Location/Type
08:52AM 32.3667 -64.6833 327° Northwest 171 197 2,000  Level New York Oceanic (ODAPS)
08:56AM 32.3667 -64.6833 327° Northwest 171 197 10,000 2,100 Climbing New York Oceanic (ODAPS)
08:56AM 32.6500 -64.9000 327° Northwest 399 459 10,000 780 Level New York Oceanic (ODAPS)
08:58AM 32.6500 -64.9000 327° Northwest 399 459 12,000 -3,540 Climbing New York Oceanic (ODAPS)
08:59AM 32.6500 -64.9000 327° Northwest 171 197 2,000 -9,000 Descending FlightAware Transoceanic
09:00AM 32.7513 -64.9784 327° Northwest 171 197 2,000  Level FlightAware Transoceanic
09:01AM 32.8525 -65.0569 327° Northwest 171 197 2,000 13,380 Level FlightAware Transoceanic
09:01AM 32.6500 -64.9000 327° Northwest 399 459 17,000 7,980 Climbing New York Oceanic (ODAPS)
09:02AM 32.9537 -65.1356 327° Northwest 171 197 10,000 -3,720 Descending FlightAware Transoceanic
09:03AM 33.2991 -65.4059 327° Northwest 399 459 10,000  Level FlightAware Transoceanic
09:04AM 33.3917 -65.4788 327° Northwest 399 459 10,000 960 Level FlightAware Transoceanic
09:05AM 33.4842 -65.5518 327° Northwest 399 459 12,000 960 Climbing FlightAware Transoceanic
09:06AM 33.5767 -65.6250 327° Northwest 399 459 12,000 2,460 Level FlightAware Transoceanic
09:07AM 33.6691 -65.6984 327° Northwest 399 459 17,000 16,440 Climbing FlightAware Transoceanic
09:07AM 32.6500 -64.9000 327° Northwest 417 480 29,000  Climbing New York Oceanic (ODAPS)
09:08AM 33.7615 -65.7719 326° Northwest 399 459 17,000 -6,120 Descending FlightAware Transoceanic
09:09AM 33.8538 -65.8456 326° Northwest 399 459 17,000  Level FlightAware Transoceanic
09:10AM 33.9461 -65.9194 326° Northwest 399 459 17,000  Level FlightAware Transoceanic
09:11AM 34.0384 -65.9934 326° Northwest 399 459 17,000  Level FlightAware Transoceanic
09:12AM 34.1306 -66.0676 326° Northwest 399 459 17,000 6,000 Level FlightAware Transoceanic
09:13AM 34.2909 -66.1969 326° Northwest 417 480 29,000 6,000 Climbing FlightAware Transoceanic
09:14AM 34.3870 -66.2747 326° Northwest 417 480 29,000  Level FlightAware Transoceanic
09:15AM 34.4830 -66.3528 326° Northwest 417 480 29,000 4,560 Level FlightAware Transoceanic
09:15AM 32.6500 -64.9000 327° Northwest 417 480 38,000  Climbing New York Oceanic (ODAPS)
09:16AM 34.5790 -66.4310 326° Northwest 417 480 29,000 -8,580 Descending FlightAware Transoceanic
09:17AM 34.6749 -66.5094 326° Northwest 417 480 29,000  Level FlightAware Transoceanic
09:18AM 34.7708 -66.5879 326° Northwest 417 480 29,000  Level FlightAware Transoceanic
09:19AM 34.8667 -66.6667 323° Northwest 417 480 29,000  Level FlightAware Transoceanic
09:20AM 34.9700 -66.7624 323° Northwest 417 480 29,000  Level FlightAware Transoceanic
09:21AM 35.0732 -66.8584 323° Northwest 417 480 29,000 4,500 Level FlightAware Transoceanic
09:22AM 35.1763 -66.9547 323° Northwest 417 480 38,000 4,500 Climbing FlightAware Transoceanic
09:23AM 35.2794 -67.0512 323° Northwest 417 480 38,000  Level FlightAware Transoceanic
09:23AM 34.8667 -66.6667 323° Northwest 455 524 38,000  Level New York Oceanic (ODAPS)
09:24AM 35.3824 -67.1479 323° Northwest 417 480 38,000  Level FlightAware Transoceanic
09:25AM 35.4853 -67.2449 322° Northwest 417 480 38,000  Level FlightAware Transoceanic
09:26AM 35.5881 -67.3421 322° Northwest 417 480 38,000  Level FlightAware Transoceanic
09:27AM 35.6909 -67.4396 322° Northwest 417 480 38,000  Level FlightAware Transoceanic
09:28AM 35.7935 -67.5374 322° Northwest 417 480 38,000  Level FlightAware Transoceanic
09:29AM 35.8668 -67.6073 322° Northwest 455 524 38,000  Level FlightAware Transoceanic
09:30AM 35.9665 -67.7027 322° Northwest 455 524 38,000  Level FlightAware Transoceanic
09:31AM 36.0660 -67.7983 322° Northwest 455 524 38,000  Level FlightAware Transoceanic
09:32AM 36.1655 -67.8941 322° Northwest 455 524 38,000  Level FlightAware Transoceanic
09:33AM 36.2648 -67.9902 322° Northwest 455 524 38,000  Level FlightAware Transoceanic
09:34AM 36.3641 -68.0865 322° Northwest 455 524 38,000  Level FlightAware Transoceanic
09:35AM 36.4634 -68.1831 322° Northwest 455 524 38,000  Level FlightAware Transoceanic
09:36AM 36.5625 -68.2799 322° Northwest 455 524 38,000  Level FlightAware Transoceanic
09:37AM 36.6616 -68.3770 322° Northwest 455 524 38,000  Level FlightAware Transoceanic
09:38AM 36.7606 -68.4743 322° Northwest 455 524 38,000  Level FlightAware Transoceanic
09:39AM 36.8595 -68.5719 322° Northwest 455 524 38,000  Level FlightAware Transoceanic
09:40AM 36.9583 -68.6697 322° Northwest 455 524 38,000  Level FlightAware Transoceanic
09:41AM 37.0571 -68.7678 322° Northwest 455 524 38,000  Level FlightAware Transoceanic
09:42AM 37.1558 -68.8662 321° Northwest 455 524 38,000 1,920 Level FlightAware Transoceanic
09:42AM 36.5667 -68.2833 322° Northwest 449 517 40,000  Climbing New York Oceanic (ODAPS)
09:43AM 37.2543 -68.9648 321° Northwest 455 524 38,000 -1,020 Descending FlightAware Transoceanic
09:44AM 37.3529 -69.0636 321° Northwest 455 524 38,000  Level FlightAware Transoceanic
09:45AM 37.4513 -69.1627 321° Northwest 455 524 38,000  Level FlightAware Transoceanic
09:46AM 37.5496 -69.2621 321° Northwest 455 524 38,000  Level FlightAware Transoceanic
09:47AM 37.6479 -69.3617 321° Northwest 455 524 38,000 960 Level FlightAware Transoceanic
09:48AM 37.8453 -69.5628 321° Northwest 449 517 40,000 960 Climbing FlightAware Transoceanic
09:49AM 37.9431 -69.6630 321° Northwest 449 517 40,000  Level FlightAware Transoceanic
09:50AM 38.0408 -69.7635 321° Northwest 449 517 40,000  Level FlightAware Transoceanic
09:51AM 38.1384 -69.8643 321° Northwest 449 517 40,000  Level FlightAware Transoceanic
09:52AM 38.2359 -69.9653 321° Northwest 449 517 40,000  Level FlightAware Transoceanic
09:53AM 38.3333 -70.0667 305° West 449 517 40,000  Level FlightAware Transoceanic
09:54AM 38.4054 -70.1958 305° West 449 517 40,000  Level FlightAware Transoceanic
09:55AM 38.4774 -70.3252 305° West 449 517 40,000  Level FlightAware Transoceanic
09:55AM 38.4208 -70.2347 305° West 448 516 40,000  Level New York Center
09:56AM 38.5492 -70.4548 305° West 449 517 40,000  Level FlightAware Transoceanic
09:56AM 38.4922 -70.3617 306° West 440 506 40,000  Level New York Center
09:57AM 38.6209 -70.5847 305° West 449 517 40,000  Level FlightAware Transoceanic
09:57AM 38.5531 -70.4939 300° West 440 506 40,000  Level New York Center
09:58AM 38.6924 -70.7149 305° West 449 517 40,000  Level FlightAware Transoceanic
09:58AM 38.6114 -70.6267 299° West 440 506 40,000  Level New York Center
09:59AM 38.7638 -70.8453 305° West 449 517 40,000  Level FlightAware Transoceanic
09:59AM 38.6719 -70.7622 300° West 440 506 40,000  Level New York Center
10:00AM 38.8350 -70.9760 305° West 449 517 40,000 -120 Level FlightAware Transoceanic
10:00AM 38.7322 -70.8981 300° West 440 506 39,900 -840 Descending New York Center
10:01AM 38.7861 -71.0447 295° West 440 506 38,800 -1,200 Descending New York Center
10:02AM 38.8506 -71.1783 302° West 440 506 37,500 -1,320 Descending New York Center
10:03AM 38.9125 -71.3147 300° West 440 506 36,200 -1,320 Descending New York Center
10:04AM 38.9681 -71.4514 298° West 440 506 34,900 -1,140 Descending New York Center
10:05AM 39.0256 -71.5831 299° West 434 499 34,000 -480 Descending New York Center
10:06AM 39.0847 -71.7200 299° West 433 498 34,000  Level New York Center
10:07AM 39.1419 -71.8575 298° West 439 505 34,000  Level New York Center
10:08AM 39.2011 -72.0003 298° West 439 505 34,000 -900 Level New York Center
10:09AM 39.2578 -72.1381 298° West 444 511 32,300 -2,220 Descending New York Center
10:10AM 39.3164 -72.2789 298° West 437 503 29,600 -2,760 Descending New York Center
10:11AM 39.3708 -72.4169 297° West 437 503 26,900 -2,640 Descending New York Center
10:12AM 39.4272 -72.5528 298° West 437 503 24,300 -2,580 Descending New York Center
10:13AM 39.4814 -72.6806 299° West 431 496 21,800 -2,340 Descending New York Center
10:14AM 39.5333 -72.8111 297° West 414 476 19,600 -2,280 Descending New York Center
10:15AM 39.5814 -72.9283 298° West 393 452 17,300 -2,220 Descending New York Center
10:16AM 39.6272 -73.0403 298° West 371 427 15,300 -2,040 Descending New York Center
10:17AM 39.6728 -73.1522 298° West 360 414 13,300 -2,100 Descending New York Center
10:18AM 39.7183 -73.2672 297° West 360 414 11,100 -1,740 Descending New York Center
10:19AM 39.7561 -73.3603 298° West 334 384 9,900 -660 Descending New York Center
10:20AM 39.7836 -73.4317 297° West 303 349 9,900  Level New York Center
10:21AM 39.8231 -73.5306 297° West 280 322 9,900  Level New York Center
10:22AM 39.8583 -73.6183 298° West 280 322 9,900 -300 Level New York Center
10:23AM 39.8939 -73.7064 298° West 275 316 9,300 -840 Descending New York Center
10:24AM 39.9331 -73.8028 298° West 275 316 8,200 -1,140 Descending New York Center
10:25AM 39.9661 -73.8883 297° West 275 316 7,100 -1,020 Descending New York Center
10:26AM 39.9975 -73.9683 297° West 270 311 6,200 -1,020 Descending New York Center
10:27AM 40.0306 -74.0511 298° West 265 305 5,100 -1,140 Descending New York Center
10:28AM 40.0675 -74.1478 297° West 265 305 4,000 -600 Descending New York Center
10:29AM 40.1003 -74.2333 297° West 265 305 4,000  Level New York Center
10:30AM 40.1331 -74.3192 297° West 265 305 4,000  Level New York Center
10:31AM 40.1642 -74.3997 297° West 265 305 4,000  Level New York Center
10:31AM 40.1833 -74.4500 297° West 267 307 4,000  Level New York TRACON